Terminal Aerodrome Forecast
Issued by NWS Northern Indiana

Home | Current Version | Previous Version | Graphics & Text | Print | Product List | Glossary On
Versions: 1 2 3 4 5 6 7 8 9 10 11 12
000
FTUS43 KIWX 132342
TAFFWA
TAF
KFWA 132342Z 1400/1424 17005KT P6SM FEW050 BKN250
     FM141800 18004KT P6SM BKN090
     FM142200 VRB03KT P6SM SCT100=

USA.gov is the U.S. government's official web portal to all federal, state and local government web resources and services.